Latest Coastal Weather Observations for Hobart Airport

IDT60701

Issued at 2:52 am EST Friday 21 July 2017 (issued every 10 minutes, with the page automatically refreshed every 10 minutes)

About coastal observations | Map of coastal stations | Coastal observations for TAS | Marine services | Other Formats
Station Details ID: 094008 Name: HOBART AIRPORT Lat: -42.83 Lon: 147.50 Height: 4.0 m
Data from the previous 72 hours. | See also: Recent months at Hobart Airport
Date/Time
EST
Temp
°C
Wind Pressure Rain since
9am
mm
Weather Cloud Vis
km
Sea
Height
m
Swell
Dir  Spd
kts
Gust
kts
hPa Trend Height
m
Period
s
Dir
21/02:30am 6.4 WNW 7 8 1021.3 - 3.0 - Mostly clear 10 - - - -
21/02:00am 6.7 WNW 8 10 1021.5 - 3.0 - Mostly clear 10 - - - -
21/01:30am 6.9 NW 7 8 1021.4 - 3.0 - Mostly clear 10 - - - -
21/01:00am 6.9 W 6 7 1021.3 - 3.0 - Mostly clear 10 - - - -
21/12:30am 6.6 WNW 6 7 1021.3 - 3.0 - Mostly clear 10 - - - -
21/12:00am 6.9 WNW 7 9 1020.9 R 3.0 Fine Mostly cloudy 35 - - - -
 
Date/Time
EST
Temp
°C
Wind Pressure Rain since
9am
mm
Weather Cloud Vis
km
Sea
Height
m
Swell
Dir  Spd
kts
Gust
kts
hPa Trend Height
m
Period
s
Dir
20/11:30pm 6.9 WNW 9 10 1020.9 - 3.0 - Mostly clear 10 - - - -
20/11:00pm 6.9 WNW 8 10 1020.8 - 3.0 - Mostly clear 10 - - - -
20/10:30pm 7.0 WNW 8 9 1020.7 - 3.0 - Mostly clear 10 - - - -
20/10:00pm 7.2 WNW 9 10 1020.6 - 3.0 - Mostly clear 10 - - - -
20/09:30pm 7.3 WNW 7 9 1020.4 - 3.0 - Partly cloudy 10 - - - -
20/09:00pm 6.9 NW 7 8 1019.9 R 3.0 Haze Mostly cloudy 30 - - - -
20/08:30pm 6.8 WSW 5 5 1019.7 - 3.0 - Mostly clear 10 - - - -
20/08:00pm 7.5 W 6 7 1019.6 - 3.0 - Mostly clear 10 - - - -
20/07:30pm 7.9 W 6 8 1019.3 - 3.0 - Mostly clear 10 - - - -
20/07:00pm 8.6 SW 8 10 1018.8 - 3.0 - Mostly clear 10 - - - -
20/06:30pm 8.2 SSW 7 10 1018.5 - 3.0 - Mostly clear 10 - - - -
20/06:00pm 8.2 SW 8 11 1018.0 R 3.0 Drizzle Mostly cloudy 25 - - - -
20/05:30pm 8.5 SW 9 12 1017.7 - 3.0 Drizzle Mostly clear 10 - - - -
20/05:00pm 7.9 SSW 7 9 1017.4 - 3.0 - Mostly clear 10 - - - -
20/04:30pm 8.3 SSW 7 11 1016.8 - 3.0 - Mostly clear 10 - - - -
20/04:24pm 8.2 S 8 11 1016.8 - 3.0 - Mostly clear 10 - - - -
20/04:12pm 8.2 SSE 13 23 1016.7 - 3.0 Showers Mostly clear 6 - - - -
20/04:07pm 9.3 SSW 11 23 1016.6 - 2.6 Showers Partly cloudy 4 - - - -
20/04:00pm 10.6 SW 8 11 1016.1 - 2.2 - Partly cloudy 2 - - - -
20/03:30pm 10.4 SW 9 13 1015.7 - 2.2 - Mostly clear 10 - - - -
20/03:00pm 10.6 SSW 10 14 1015.2 R 2.2 Distant precip. Partly cloudy 30 - - - -
20/02:30pm 10.1 SSW 12 16 1014.6 - 2.2 - Mostly clear 10 - - - -
20/02:00pm 9.8 SSW 11 15 1014.2 - 2.2 - Mostly clear 10 - - - -
20/01:30pm 9.7 SW 11 17 1013.5 - 2.2 - Mostly clear 10 - - - -
20/01:00pm 8.6 SSW 15 19 1013.0 - 2.2 - Mostly clear 10 - - - -
20/12:30pm 8.3 SSW 13 18 1012.5 - 2.2 Showers Mostly clear 8 - - - -
20/12:22pm 7.8 SSW 15 18 1012.4 - 2.0 Showers Mostly clear 7 - - - -
20/12:13pm 8.1 SW 14 18 1012.2 - 1.6 Showers Mostly clear 10 - - - -
20/12:00pm 7.5 SSW 11 15 1012.1 R 1.6 Showers Mostly cloudy 7 - - - -
20/11:30am 7.4 SW 12 18 1011.7 - 0.8 Showers Mostly clear 10 - - - -
20/11:00am 7.8 SW 16 23 1011.5 - 0.2 - Mostly clear 10 - - - -
20/10:30am 8.5 SW 15 19 1011.1 - 0.2 - Mostly clear 10 - - - -
20/10:00am 8.1 SW 12 17 1010.7 - 0.0 - Mostly clear 10 - - - -
20/09:30am 7.4 WSW 11 16 1010.4 - 0.0 - Mostly clear 10 - - - -
20/09:00am 6.6 WSW 13 19 1009.8 R 0.8 Recent precip. Partly cloudy 35 - - - -
20/08:30am 6.0 SW 7 12 1009.4 - 0.8 - Mostly clear 10 - - - -
20/08:00am 4.9 SW 8 11 1008.9 - 0.8 - Mostly clear 10 - - - -
20/07:30am 3.6 WNW 7 9 1008.3 - 0.8 - Mostly clear 10 - - - -
20/07:00am 3.4 WNW 5 6 1007.7 - 0.8 - Mostly clear 10 - - - -
20/06:30am 3.5 WNW 6 9 1007.1 - 0.8 - Mostly clear 10 - - - -
20/06:00am 2.8 NW 5 7 1006.6 R 0.8 Fine Mostly clear 40 - - - -
20/05:30am 2.5 CALM 0 0 1006.2 - 0.8 - Mostly clear 10 - - - -
20/05:00am 2.9 WNW 6 9 1005.8 - 0.8 - Mostly clear 10 - - - -
20/04:30am 5.0 NW 10 15 1005.0 - 0.8 - Mostly clear 10 - - - -
20/04:00am 4.8 NW 9 14 1004.9 - 0.8 - Mostly clear 10 - - - -
20/03:30am 4.4 NNW 8 10 1004.8 - 0.8 - Partly cloudy 10 - - - -
20/03:00am 4.3 NNW 6 8 1004.8 R 0.8 Fine Mostly cloudy 40 - - - -
20/02:30am 4.7 NNW 6 10 1005.0 - 0.8 - Mostly clear 10 - - - -
20/02:00am 4.1 N 4 7 1004.6 - 0.8 - Mostly clear 10 - - - -
20/01:30am 5.2 NW 11 15 1004.5 - 0.8 - Mostly clear 10 - - - -
20/01:00am 5.3 NNW 10 15 1004.6 - 0.8 - Mostly clear 10 - - - -
20/12:30am 5.7 NW 10 14 1004.6 - 0.8 - Mostly clear 10 - - - -
20/12:00am 5.9 NW 9 13 1005.0 F 0.8 Showers Mostly cloudy 30 - - - -
 
Date/Time
EST
Temp
°C
Wind Pressure Rain since
9am
mm
Weather Cloud Vis
km
Sea
Height
m
Swell
Dir  Spd
kts
Gust
kts
hPa Trend Height
m
Period
s
Dir
19/11:30pm 6.2 NW 11 15 1005.0 - 0.8 - Mostly clear 10 - - - -
19/11:00pm 6.4 NNW 10 15 1005.0 - 0.8 - Mostly clear 10 - - - -
19/10:30pm 6.3 N 11 16 1005.0 - 0.8 - Mostly clear 10 - - - -
19/10:00pm 6.1 N 8 10 1004.6 - 0.8 - Mostly clear 10 - - - -
19/09:30pm 6.3 NW 11 17 1005.9 - 0.6 Showers Mostly clear 10 - - - -
19/09:00pm 8.1 N 9 15 1005.1 F 0.2 Showers Mostly cloudy 20 - - - -
19/08:30pm 7.9 NNE 7 12 1005.7 - 0.2 - Mostly clear 10 - - - -
19/08:00pm 8.2 N 8 12 1005.7 - 0.2 - Mostly clear 10 - - - -
19/07:30pm 7.9 N 8 13 1006.1 - 0.2 - Mostly clear 10 - - - -
19/07:00pm 8.3 NNW 9 13 1006.2 - 0.2 - Mostly clear 10 - - - -
19/06:30pm 8.8 NW 12 18 1007.1 - 0.2 - Mostly clear 10 - - - -
19/06:00pm 8.1 W 7 11 1007.5 F 0.2 Haze Mostly cloudy 30 - - - -
19/05:30pm 7.5 WSW 5 8 1007.5 - 0.2 - Mostly clear 10 - - - -
19/05:00pm 8.5 SW 7 10 1007.5 - 0.2 - Mostly clear 10 - - - -
19/04:30pm 9.7 WSW 7 9 1007.6 - 0.2 - Mostly clear 10 - - - -
19/04:00pm 10.0 WSW 13 20 1007.7 - 0.2 - Mostly clear 10 - - - -
19/03:30pm 10.2 SSW 11 15 1007.7 - 0.2 - Mostly clear 10 - - - -
19/03:00pm 10.9 SW 10 19 1007.6 F 0.2 Haze Mostly clear 30 - - - -
19/02:30pm 10.9 SSW 9 14 1007.8 - 0.2 - Partly cloudy 10 - - - -
19/02:00pm 10.9 S 12 20 1008.2 - 0.2 - Partly cloudy 10 - - - -
19/01:30pm 9.7 S 15 19 1008.0 - 0.2 - Mostly clear 10 - - - -
19/01:00pm 9.8 SSW 16 20 1008.2 - 0.2 - Mostly clear 10 - - - -
19/12:30pm 10.0 SSW 17 22 1008.4 - 0.2 - Mostly clear 10 - - - -
19/12:00pm 9.5 S 13 20 1008.6 R 0.2 Distant precip. Mostly cloudy 20 - - - -
19/11:30am 9.4 SSW 14 20 1008.6 - 0.2 - Mostly clear 10 - - - -
19/11:00am 9.9 SSW 19 27 1008.6 - 0.2 - Mostly clear 10 - - - -
19/10:44am 9.5 SSW 18 26 1008.4 - 0.2 - Mostly clear 10 - - - -
19/10:30am 8.4 SSW 17 30 1008.1 - 0.0 Showers Mostly clear 6 - - - -
19/10:28am 8.6 SSW 17 29 1008.2 - 0.0 Showers Mostly clear 8 - - - -
19/10:24am 8.9 SSW 17 24 1008.2 - 0.0 Showers Mostly clear 7 - - - -
19/10:06am 9.5 SSW 16 26 1007.9 - 0.0 Showers Mostly clear 2 - - - -
19/10:00am 9.7 SSW 17 22 1007.8 - 0.0 - Mostly clear 10 - - - -
19/09:39am 9.3 SSW 15 28 1007.4 - 0.0 Showers Mostly clear 10 - - - -
19/09:30am 9.4 SSW 15 20 1007.3 - 0.0 Showers Mostly clear 10 - - - -
19/09:00am 9.5 SSW 15 21 1007.0 R 13.8 Recent precip. Mostly cloudy 15 - - - -
19/08:30am 9.5 SSW 13 18 1006.5 - 13.8 Showers Mostly clear 10 - - - -
19/08:22am 9.4 SSW 14 19 1006.4 - 13.8 Showers Mostly clear 10 - - - -
19/08:07am 9.4 SSW 14 18 1006.2 - 13.8 Showers Mostly clear 6 - - - -
19/08:00am 9.6 SSW 13 16 1006.1 - 13.8 - Mostly clear 8 - - - -
19/07:44am 9.5 SSW 11 16 1005.8 - 13.8 Showers Mostly clear 9 - - - -
19/07:30am 9.7 SSW 9 16 1005.6 - 13.8 Showers Mostly clear 7 - - - -
19/07:12am 9.7 SSW 9 14 1005.3 - 13.6 Showers Partly cloudy 9 - - - -
19/07:00am 9.8 SSW 11 17 1005.1 - 13.6 - Mostly clear 9 - - - -
19/06:30am 9.9 SSW 11 16 1004.6 - 13.6 - Mostly clear 10 - - - -
19/06:18am 9.8 SW 11 16 1004.4 - 13.6 - Mostly clear 10 - - - -
19/06:00am 9.7 SW 11 16 1004.3 R 13.4 Recent precip. Mostly cloudy 20 - - - -
19/05:45am 9.2 SW 10 14 1004.0 - 13.4 Rain Partly cloudy 4 - - - -
19/05:30am 9.2 SW 12 18 1003.6 - 11.2 Rain Partly cloudy 4 - - - -
19/05:00am 8.9 WNW 7 9 1003.5 - 8.0 - Mostly clear 7 - - - -
19/04:53am 8.5 WNW 5 6 1003.4 - 7.4 Showers Mostly clear 5 - - - -
19/04:30am 8.1 NW 7 9 1003.1 - 6.6 Showers Mostly clear 9 - - - -
19/04:00am 8.2 NW 7 10 1002.9 - 6.0 - Mostly clear 7 - - - -
19/03:30am 8.5 N 3 4 1002.8 - 6.0 Drizzle Mostly clear 8 - - - -
19/03:19am 8.6 NE 3 4 1002.8 - 6.0 Drizzle Mostly clear 6 - - - -
19/03:00am 8.5 NNW 5 6 1002.7 R 5.6 Showers Mostly cloudy 15 - - - -
19/02:44am 8.3 NW 6 8 1002.8 - 5.0 Showers Mostly clear 6 - - - -
19/02:30am 8.5 W 5 7 1002.9 - 4.0 Showers Mostly clear 8 - - - -
19/02:00am 8.5 NW 7 9 1002.5 - 3.6 - Mostly clear 10 - - - -
19/01:51am 8.5 NW 7 8 1002.5 - 3.6 Showers Mostly clear 5 - - - -
19/01:30am 8.4 WNW 9 10 1002.5 - 2.8 Showers Mostly clear 9 - - - -
19/01:00am 8.4 NW 7 8 1002.3 - 2.2 - Mostly clear 10 - - - -
19/12:30am 8.4 NNW 3 5 1002.2 - 1.0 Showers Mostly clear 10 - - - -
19/12:00am 8.7 NW 4 5 1002.3 F 0.8 Showers Mostly cloudy 15 - - - -
 
Date/Time
EST
Temp
°C
Wind Pressure Rain since
9am
mm
Weather Cloud Vis
km
Sea
Height
m
Swell
Dir  Spd
kts
Gust
kts
hPa Trend Height
m
Period
s
Dir
18/11:30pm 8.6 NW 1 4 1002.4 - 0.6 Showers Mostly clear 10 - - - -
18/11:00pm 10.0 WSW 5 7 1002.5 - 0.0 - Mostly clear 10 - - - -
18/10:30pm 9.4 WNW 5 6 1002.5 - 0.0 - Mostly clear 10 - - - -
18/10:00pm 8.9 NW 6 7 1002.5 - 0.0 - Mostly clear 10 - - - -
18/09:30pm 8.9 CALM 0 0 1002.5 - 0.0 - Mostly clear 10 - - - -
18/09:00pm 8.7 SW 3 4 1002.3 R 0.0 Distant precip. Mostly cloudy 40 - - - -
18/08:30pm 9.6 NW 4 5 1002.2 - 0.0 - Mostly clear 10 - - - -
18/08:00pm 9.4 NW 7 8 1002.0 - 0.0 - Partly cloudy 10 - - - -
18/07:30pm 9.8 NW 7 8 1001.8 - 0.0 - Mostly cloudy 10 - - - -
18/07:00pm 9.7 NW 5 6 1001.8 - 0.0 - Mostly clear 10 - - - -
18/06:30pm 9.6 NW 6 7 1001.6 - 0.0 - Mostly clear 10 - - - -
18/06:00pm 9.6 NNW 4 5 1001.4 F 0.0 Rain Mostly cloudy 30 - - - -
18/05:30pm 10.5 NNW 5 6 1001.2 - 0.0 - Mostly clear 10 - - - -
18/05:00pm 10.9 NNW 5 7 1001.1 - 0.0 - Mostly clear 10 - - - -
18/04:30pm 11.1 NNW 4 6 1001.1 - 0.0 - Mostly clear 10 - - - -
18/04:00pm 11.8 N 6 8 1001.0 - 0.0 - Mostly clear 10 - - - -
18/03:30pm 13.3 N 7 8 1000.9 - 0.0 - Mostly clear 10 - - - -
18/03:00pm 12.6 NNW 8 10 1000.9 F 0.0 Haze Mostly cloudy 30 - - - -
18/02:30pm 12.2 NNW 6 8 1001.1 - 0.0 - Mostly clear 10 - - - -
18/02:00pm 12.2 NNW 6 7 1001.1 - 0.0 - Mostly clear 10 - - - -
18/01:30pm 12.5 N 6 9 1001.3 - 0.0 - Mostly clear 10 - - - -
18/01:00pm 12.7 WNW 4 5 1001.6 - 0.0 - Mostly clear 10 - - - -
18/12:30pm 10.7 WNW 3 4 1002.2 - 0.0 - Mostly clear 10 - - - -
18/12:00pm 8.5 NW 5 5 1002.8 F 0.0 Recent precip. Mostly cloudy 20 - - - -
18/11:30am 7.5 NW 7 9 1003.3 - 0.0 Rain Mostly clear 10 - - - -
18/11:00am 6.9 WNW 6 8 1003.7 - 0.0 - Mostly clear 10 - - - -
18/10:30am 6.0 NW 1 4 1004.0 - 0.0 - Mostly clear 10 - - - -
18/10:00am 5.2 CALM 0 0 1004.2 - 0.0 - Mostly clear 10 - - - -
18/09:30am 5.8 NW 6 7 1004.3 - 0.0 - Mostly clear 10 - - - -
18/09:00am 5.3 WNW 6 7 1004.5 F 0.2 Distant fog Mostly cloudy 25 - - - -
18/08:30am 4.6 NW 7 8 1004.5 - 0.2 Fog patches Mostly clear 10 - - - -
18/08:00am 4.2 NW 1 4 1004.6 - 0.2 - Mostly clear 10 - - - -
18/07:30am 3.6 CALM 0 0 1004.8 - 0.2 Fog patches Mostly clear 10 - - - -
18/07:00am 4.5 CALM 0 0 1004.9 - 0.2 - Mostly clear 10 - - - -
18/06:30am 3.5 WNW 1 4 1004.8 - 0.2 Fog patches Mostly clear 10 - - - -
18/06:00am 3.7 CALM 0 0 1005.0 F 0.2 Fog patches Partly cloudy 40 - - - -
18/05:30am 4.0 E 1 3 1005.1 - 0.2 Shallow fog Mostly clear 10 - - - -
18/05:20am 3.1 S 3 4 1005.1 - 0.2 Shallow fog Mostly clear 10 - - - -
18/05:00am 5.0 WSW 3 4 1005.1 - 0.2 - Mostly clear 10 - - - -
18/04:30am 4.1 CALM 0 2 1005.2 - 0.2 - Mostly clear 10 - - - -
18/04:00am 5.8 CALM 0 0 1005.2 - 0.2 - Mostly clear 10 - - - -
18/03:30am 5.9 SW 3 4 1005.2 - 0.2 - Mostly clear 10 - - - -
18/03:00am 5.2 CALM 0 0 1005.6 F 0.2 Fine Mostly cloudy 40 - - - -

Other Formats:

Comma delimited format used in spreadsheet applications
http://www.bom.gov.au/fwo/IDT60701/IDT60701.94975.axf

JavaScript Object Notation format (JSON) in row-major order
http://www.bom.gov.au/fwo/IDT60701/IDT60701.94975.json